sensor_id;sensor_type;location;lat;lon;timestamp;temperature;humidity
31759;DHT22;36334;51.366;0.020;2022-11-21T00:01:32;6.60;99.90
31759;DHT22;36334;51.366;0.020;2022-11-21T00:04:18;6.70;99.90
31759;DHT22;36334;51.366;0.020;2022-11-21T00:07:04;6.80;99.90
31759;DHT22;36334;51.366;0.020;2022-11-21T00:09:50;6.80;99.90
31759;DHT22;36334;51.366;0.020;2022-11-21T00:12:36;6.80;99.90
31759;DHT22;36334;51.366;0.020;2022-11-21T00:15:24;6.80;99.90
31759;DHT22;36334;51.366;0.020;2022-11-21T00:18:11;6.90;99.90
31759;DHT22;36334;51.366;0.020;2022-11-21T00:21:02;6.90;99.90
31759;DHT22;36334;51.366;0.020;2022-11-21T00:23:51;6.90;99.90
31759;DHT22;36334;51.366;0.020;2022-11-21T00:26:37;6.90;99.90
31759;DHT22;36334;51.366;0.020;2022-11-21T00:29:23;7.00;99.90
31759;DHT22;36334;51.366;0.020;2022-11-21T00:32:09;6.90;99.90
31759;DHT22;36334;51.366;0.020;2022-11-21T00:34:55;7.00;99.90
31759;DHT22;36334;51.366;0.020;2022-11-21T00:37:42;6.90;99.90
31759;DHT22;36334;51.366;0.020;2022-11-21T00:40:30;6.90;99.90
31759;DHT22;36334;51.366;0.020;2022-11-21T00:43:16;6.90;99.90
31759;DHT22;36334;51.366;0.020;2022-11-21T00:46:05;6.80;99.90
31759;DHT22;36334;51.366;0.020;2022-11-21T00:48:54;6.80;99.90
31759;DHT22;36334;51.366;0.020;2022-11-21T00:51:40;6.80;99.90
31759;DHT22;36334;51.366;0.020;2022-11-21T00:54:26;6.80;99.90
31759;DHT22;36334;51.366;0.020;2022-11-21T00:57:12;6.80;99.90
31759;DHT22;36334;51.366;0.020;2022-11-21T00:59:58;6.70;99.90
31759;DHT22;36334;51.366;0.020;2022-11-21T01:02:45;6.70;99.90
31759;DHT22;36334;51.366;0.020;2022-11-21T01:05:32;6.60;99.90
31759;DHT22;36334;51.366;0.020;2022-11-21T01:08:18;6.60;99.90
31759;DHT22;36334;51.366;0.020;2022-11-21T01:11:06;6.60;99.90
31759;DHT22;36334;51.366;0.020;2022-11-21T01:13:53;6.50;99.90
31759;DHT22;36334;51.366;0.020;2022-11-21T01:16:39;6.50;99.90
31759;DHT22;36334;51.366;0.020;2022-11-21T01:19:25;6.50;99.90
31759;DHT22;36334;51.366;0.020;2022-11-21T01:22:11;6.60;99.90
31759;DHT22;36334;51.366;0.020;2022-11-21T01:24:57;6.60;99.90
31759;DHT22;36334;51.366;0.020;2022-11-21T01:27:43;6.60;99.90
31759;DHT22;36334;51.366;0.020;2022-11-21T01:30:29;6.60;99.90
31759;DHT22;36334;51.366;0.020;2022-11-21T01:33:16;6.60;99.90
31759;DHT22;36334;51.366;0.020;2022-11-21T01:36:33;6.60;99.90
31759;DHT22;36334;51.366;0.020;2022-11-21T01:41:00;6.60;99.90
31759;DHT22;36334;51.366;0.020;2022-11-21T01:44:21;6.70;99.90
31759;DHT22;36334;51.366;0.020;2022-11-21T01:47:58;6.70;99.90
31759;DHT22;36334;51.366;0.020;2022-11-21T02:05:53;6.80;99.90
31759;DHT22;36334;51.366;0.020;2022-11-21T02:09:28;6.80;99.90
31759;DHT22;36334;51.366;0.020;2022-11-21T02:18:08;6.80;99.90
31759;DHT22;36334;51.366;0.020;2022-11-21T02:26:29;6.70;99.90
31759;DHT22;36334;51.366;0.020;2022-11-21T02:29:42;6.70;99.90
31759;DHT22;36334;51.366;0.020;2022-11-21T02:32:45;6.70;99.90
31759;DHT22;36334;51.366;0.020;2022-11-21T02:36:38;6.70;99.90
31759;DHT22;36334;51.366;0.020;2022-11-21T02:51:27;6.80;99.90
31759;DHT22;36334;51.366;0.020;2022-11-21T02:59:46;6.70;99.90
31759;DHT22;36334;51.366;0.020;2022-11-21T03:02:50;6.70;99.90
31759;DHT22;36334;51.366;0.020;2022-11-21T03:05:38;6.70;99.90
31759;DHT22;36334;51.366;0.020;2022-11-21T03:08:32;6.60;99.90
31759;DHT22;36334;51.366;0.020;2022-11-21T03:11:46;6.60;99.90
31759;DHT22;36334;51.366;0.020;2022-11-21T03:15:11;6.60;99.90
31759;DHT22;36334;51.366;0.020;2022-11-21T03:18:01;6.50;99.90
31759;DHT22;36334;51.366;0.020;2022-11-21T03:20:48;6.50;99.90
31759;DHT22;36334;51.366;0.020;2022-11-21T03:23:34;6.40;99.90
31759;DHT22;36334;51.366;0.020;2022-11-21T03:26:20;6.40;99.90
31759;DHT22;36334;51.366;0.020;2022-11-21T03:29:06;6.30;99.90
31759;DHT22;36334;51.366;0.020;2022-11-21T03:31:52;6.30;99.90
31759;DHT22;36334;51.366;0.020;2022-11-21T03:34:38;6.30;99.90
31759;DHT22;36334;51.366;0.020;2022-11-21T03:37:24;6.30;99.90
31759;DHT22;36334;51.366;0.020;2022-11-21T03:40:10;6.30;99.90
31759;DHT22;36334;51.366;0.020;2022-11-21T03:42:56;6.20;99.90
31759;DHT22;36334;51.366;0.020;2022-11-21T03:45:47;6.30;99.90
31759;DHT22;36334;51.366;0.020;2022-11-21T03:48:33;6.20;99.90
31759;DHT22;36334;51.366;0.020;2022-11-21T03:51:20;6.10;99.90
31759;DHT22;36334;51.366;0.020;2022-11-21T03:54:06;6.00;99.90
31759;DHT22;36334;51.366;0.020;2022-11-21T03:56:52;6.00;99.90
31759;DHT22;36334;51.366;0.020;2022-11-21T03:59:38;5.90;99.90
31759;DHT22;36334;51.366;0.020;2022-11-21T04:02:24;5.90;99.90
31759;DHT22;36334;51.366;0.020;2022-11-21T04:05:10;5.90;99.90
31759;DHT22;36334;51.366;0.020;2022-11-21T04:07:56;5.80;99.90
31759;DHT22;36334;51.366;0.020;2022-11-21T04:10:50;5.80;99.90
31759;DHT22;36334;51.366;0.020;2022-11-21T04:13:36;5.80;99.90
31759;DHT22;36334;51.366;0.020;2022-11-21T04:16:22;5.70;99.90
31759;DHT22;36334;51.366;0.020;2022-11-21T04:19:08;5.70;99.90
31759;DHT22;36334;51.366;0.020;2022-11-21T04:21:54;5.60;99.90
31759;DHT22;36334;51.366;0.020;2022-11-21T04:24:40;5.70;99.90
31759;DHT22;36334;51.366;0.020;2022-11-21T04:27:27;5.70;99.90
31759;DHT22;36334;51.366;0.020;2022-11-21T04:30:13;5.60;99.90
31759;DHT22;36334;51.366;0.020;2022-11-21T04:33:20;5.60;99.90
31759;DHT22;36334;51.366;0.020;2022-11-21T04:36:07;5.60;99.90
31759;DHT22;36334;51.366;0.020;2022-11-21T04:38:53;5.60;99.90
31759;DHT22;36334;51.366;0.020;2022-11-21T04:41:41;5.50;99.90
31759;DHT22;36334;51.366;0.020;2022-11-21T04:44:27;5.50;99.90
31759;DHT22;36334;51.366;0.020;2022-11-21T04:47:14;5.50;99.90
31759;DHT22;36334;51.366;0.020;2022-11-21T04:50:01;5.50;99.90
31759;DHT22;36334;51.366;0.020;2022-11-21T04:52:54;5.40;99.90
31759;DHT22;36334;51.366;0.020;2022-11-21T04:55:41;5.40;99.90
31759;DHT22;36334;51.366;0.020;2022-11-21T04:58:27;5.40;99.90
31759;DHT22;36334;51.366;0.020;2022-11-21T05:01:13;5.40;99.90
31759;DHT22;36334;51.366;0.020;2022-11-21T05:04:02;5.40;99.90
31759;DHT22;36334;51.366;0.020;2022-11-21T05:06:49;5.30;99.90
31759;DHT22;36334;51.366;0.020;2022-11-21T05:09:35;5.30;99.90
31759;DHT22;36334;51.366;0.020;2022-11-21T05:12:21;5.30;99.90
31759;DHT22;36334;51.366;0.020;2022-11-21T05:15:25;5.30;99.90
31759;DHT22;36334;51.366;0.020;2022-11-21T05:18:11;5.20;99.90
31759;DHT22;36334;51.366;0.020;2022-11-21T05:21:00;5.20;99.90
31759;DHT22;36334;51.366;0.020;2022-11-21T05:23:50;5.20;99.90
31759;DHT22;36334;51.366;0.020;2022-11-21T05:26:37;5.20;99.90
31759;DHT22;36334;51.366;0.020;2022-11-21T05:29:24;5.20;99.90
31759;DHT22;36334;51.366;0.020;2022-11-21T05:32:13;5.30;99.90
31759;DHT22;36334;51.366;0.020;2022-11-21T05:34:59;5.30;99.90
31759;DHT22;36334;51.366;0.020;2022-11-21T05:37:45;5.30;99.90
31759;DHT22;36334;51.366;0.020;2022-11-21T05:40:31;5.30;99.90
31759;DHT22;36334;51.366;0.020;2022-11-21T05:43:17;5.30;99.90
31759;DHT22;36334;51.366;0.020;2022-11-21T05:46:22;5.30;99.90
31759;DHT22;36334;51.366;0.020;2022-11-21T05:49:09;5.30;99.90
31759;DHT22;36334;51.366;0.020;2022-11-21T05:51:55;5.30;99.90
31759;DHT22;36334;51.366;0.020;2022-11-21T05:54:41;5.30;99.90
31759;DHT22;36334;51.366;0.020;2022-11-21T05:57:30;5.30;99.90
31759;DHT22;36334;51.366;0.020;2022-11-21T06:00:19;5.30;99.90
31759;DHT22;36334;51.366;0.020;2022-11-21T06:03:05;5.30;99.90
31759;DHT22;36334;51.366;0.020;2022-11-21T06:06:15;5.30;99.90
31759;DHT22;36334;51.366;0.020;2022-11-21T06:09:07;5.40;99.90
31759;DHT22;36334;51.366;0.020;2022-11-21T06:11:53;5.30;99.90
31759;DHT22;36334;51.366;0.020;2022-11-21T06:14:39;5.40;99.90
31759;DHT22;36334;51.366;0.020;2022-11-21T06:17:25;5.30;99.90
31759;DHT22;36334;51.366;0.020;2022-11-21T06:20:11;5.40;99.90
31759;DHT22;36334;51.366;0.020;2022-11-21T06:22:57;5.40;99.90
31759;DHT22;36334;51.366;0.020;2022-11-21T06:25:43;5.40;99.90
31759;DHT22;36334;51.366;0.020;2022-11-21T06:28:36;5.40;99.90
31759;DHT22;36334;51.366;0.020;2022-11-21T06:31:25;5.40;99.90
31759;DHT22;36334;51.366;0.020;2022-11-21T06:34:11;5.40;99.90
31759;DHT22;36334;51.366;0.020;2022-11-21T06:36:57;5.50;99.90
31759;DHT22;36334;51.366;0.020;2022-11-21T06:39:43;5.50;99.90
31759;DHT22;36334;51.366;0.020;2022-11-21T06:42:31;5.50;99.90
31759;DHT22;36334;51.366;0.020;2022-11-21T06:45:17;5.50;99.90
31759;DHT22;36334;51.366;0.020;2022-11-21T06:48:03;5.60;99.90
31759;DHT22;36334;51.366;0.020;2022-11-21T06:50:50;5.60;99.90
31759;DHT22;36334;51.366;0.020;2022-11-21T06:53:36;5.60;99.90
31759;DHT22;36334;51.366;0.020;2022-11-21T06:56:23;5.60;99.90
31759;DHT22;36334;51.366;0.020;2022-11-21T06:59:10;5.60;99.90
31759;DHT22;36334;51.366;0.020;2022-11-21T07:01:56;5.70;99.90
31759;DHT22;36334;51.366;0.020;2022-11-21T07:04:42;5.80;99.90
31759;DHT22;36334;51.366;0.020;2022-11-21T07:07:28;5.80;99.90
31759;DHT22;36334;51.366;0.020;2022-11-21T07:10:15;5.90;99.90
31759;DHT22;36334;51.366;0.020;2022-11-21T07:13:01;6.00;99.90
31759;DHT22;36334;51.366;0.020;2022-11-21T07:16:08;6.10;99.90
31759;DHT22;36334;51.366;0.020;2022-11-21T07:18:54;6.30;99.90
31759;DHT22;36334;51.366;0.020;2022-11-21T07:21:40;6.40;99.90
31759;DHT22;36334;51.366;0.020;2022-11-21T07:24:27;6.50;99.90
31759;DHT22;36334;51.366;0.020;2022-11-21T07:27:14;6.60;99.90
31759;DHT22;36334;51.366;0.020;2022-11-21T07:30:00;6.70;99.90
31759;DHT22;36334;51.366;0.020;2022-11-21T07:33:00;6.90;99.90
31759;DHT22;36334;51.366;0.020;2022-11-21T07:35:47;6.90;99.90
31759;DHT22;36334;51.366;0.020;2022-11-21T07:38:34;7.00;99.90
31759;DHT22;36334;51.366;0.020;2022-11-21T07:41:20;7.00;99.90
31759;DHT22;36334;51.366;0.020;2022-11-21T07:44:06;7.00;99.90
31759;DHT22;36334;51.366;0.020;2022-11-21T07:46:55;7.00;99.90
31759;DHT22;36334;51.366;0.020;2022-11-21T07:49:41;7.10;99.90
31759;DHT22;36334;51.366;0.020;2022-11-21T07:52:27;7.10;99.90
31759;DHT22;36334;51.366;0.020;2022-11-21T07:55:15;7.10;99.90
31759;DHT22;36334;51.366;0.020;2022-11-21T07:58:06;7.10;99.90
31759;DHT22;36334;51.366;0.020;2022-11-21T08:00:52;7.20;99.90
31759;DHT22;36334;51.366;0.020;2022-11-21T08:03:38;7.20;99.90
31759;DHT22;36334;51.366;0.020;2022-11-21T08:06:25;7.20;99.90
31759;DHT22;36334;51.366;0.020;2022-11-21T08:09:11;7.30;99.90
31759;DHT22;36334;51.366;0.020;2022-11-21T08:11:57;7.30;99.90
31759;DHT22;36334;51.366;0.020;2022-11-21T08:14:43;7.40;99.90
31759;DHT22;36334;51.366;0.020;2022-11-21T08:17:29;7.40;99.90
31759;DHT22;36334;51.366;0.020;2022-11-21T08:20:15;7.50;99.90
31759;DHT22;36334;51.366;0.020;2022-11-21T08:23:02;7.50;99.90
31759;DHT22;36334;51.366;0.020;2022-11-21T08:25:51;7.60;99.90
31759;DHT22;36334;51.366;0.020;2022-11-21T08:28:46;7.60;99.90
31759;DHT22;36334;51.366;0.020;2022-11-21T08:31:32;7.60;99.90
31759;DHT22;36334;51.366;0.020;2022-11-21T08:34:18;7.60;99.90
31759;DHT22;36334;51.366;0.020;2022-11-21T08:37:12;7.80;99.90
31759;DHT22;36334;51.366;0.020;2022-11-21T08:39:58;7.80;99.90
31759;DHT22;36334;51.366;0.020;2022-11-21T08:42:45;7.90;99.90
31759;DHT22;36334;51.366;0.020;2022-11-21T08:45:32;8.00;99.90
31759;DHT22;36334;51.366;0.020;2022-11-21T08:48:19;8.00;99.90
31759;DHT22;36334;51.366;0.020;2022-11-21T08:51:14;8.10;99.90
31759;DHT22;36334;51.366;0.020;2022-11-21T08:54:00;8.10;99.90
31759;DHT22;36334;51.366;0.020;2022-11-21T08:56:46;8.10;99.90
31759;DHT22;36334;51.366;0.020;2022-11-21T08:59:32;8.10;99.90
31759;DHT22;36334;51.366;0.020;2022-11-21T09:02:18;8.20;99.90
31759;DHT22;36334;51.366;0.020;2022-11-21T09:05:05;8.20;99.90
31759;DHT22;36334;51.366;0.020;2022-11-21T09:07:57;8.20;99.90
31759;DHT22;36334;51.366;0.020;2022-11-21T09:10:44;8.20;99.90
31759;DHT22;36334;51.366;0.020;2022-11-21T09:13:30;8.30;99.90
31759;DHT22;36334;51.366;0.020;2022-11-21T09:16:17;8.30;99.90
31759;DHT22;36334;51.366;0.020;2022-11-21T09:19:22;8.30;99.90
31759;DHT22;36334;51.366;0.020;2022-11-21T09:22:08;8.40;99.90
31759;DHT22;36334;51.366;0.020;2022-11-21T09:24:54;8.40;99.90
31759;DHT22;36334;51.366;0.020;2022-11-21T09:27:40;8.40;99.90
31759;DHT22;36334;51.366;0.020;2022-11-21T09:30:26;8.50;99.90
31759;DHT22;36334;51.366;0.020;2022-11-21T09:33:14;8.50;99.90
31759;DHT22;36334;51.366;0.020;2022-11-21T09:36:06;8.60;99.90
31759;DHT22;36334;51.366;0.020;2022-11-21T09:38:57;8.60;99.90
31759;DHT22;36334;51.366;0.020;2022-11-21T09:45:08;8.70;99.90
31759;DHT22;36334;51.366;0.020;2022-11-21T09:47:57;8.80;99.90
31759;DHT22;36334;51.366;0.020;2022-11-21T09:50:50;8.80;99.90
31759;DHT22;36334;51.366;0.020;2022-11-21T09:56:58;8.80;99.90
31759;DHT22;36334;51.366;0.020;2022-11-21T09:59:48;8.80;99.90
31759;DHT22;36334;51.366;0.020;2022-11-21T10:02:35;8.90;99.90
31759;DHT22;36334;51.366;0.020;2022-11-21T10:05:39;8.90;99.90
31759;DHT22;36334;51.366;0.020;2022-11-21T10:12:20;8.90;99.90
31759;DHT22;36334;51.366;0.020;2022-11-21T10:15:49;8.90;99.90
31759;DHT22;36334;51.366;0.020;2022-11-21T10:24:43;8.80;99.90
31759;DHT22;36334;51.366;0.020;2022-11-21T10:27:49;8.90;99.90
31759;DHT22;36334;51.366;0.020;2022-11-21T10:30:42;8.90;99.90
31759;DHT22;36334;51.366;0.020;2022-11-21T10:33:59;9.00;99.90
31759;DHT22;36334;51.366;0.020;2022-11-21T10:36:55;8.90;99.90
31759;DHT22;36334;51.366;0.020;2022-11-21T10:39:53;9.00;99.90
31759;DHT22;36334;51.366;0.020;2022-11-21T10:43:09;9.10;99.90
31759;DHT22;36334;51.366;0.020;2022-11-21T10:46:19;9.10;99.90
31759;DHT22;36334;51.366;0.020;2022-11-21T10:49:11;9.10;99.90
31759;DHT22;36334;51.366;0.020;2022-11-21T10:57:49;9.30;99.90
31759;DHT22;36334;51.366;0.020;2022-11-21T11:00:56;9.20;99.90
31759;DHT22;36334;51.366;0.020;2022-11-21T11:03:47;9.20;99.90
31759;DHT22;36334;51.366;0.020;2022-11-21T11:07:23;9.20;99.90
31759;DHT22;36334;51.366;0.020;2022-11-21T11:10:24;9.20;99.90
31759;DHT22;36334;51.366;0.020;2022-11-21T11:13:19;9.20;99.90
31759;DHT22;36334;51.366;0.020;2022-11-21T11:16:34;9.20;99.90
31759;DHT22;36334;51.366;0.020;2022-11-21T11:19:31;9.20;99.90
31759;DHT22;36334;51.366;0.020;2022-11-21T11:22:27;9.30;99.90
31759;DHT22;36334;51.366;0.020;2022-11-21T11:25:14;9.30;99.90
31759;DHT22;36334;51.366;0.020;2022-11-21T11:28:06;9.30;99.90
31759;DHT22;36334;51.366;0.020;2022-11-21T11:30:54;9.30;99.90
31759;DHT22;36334;51.366;0.020;2022-11-21T11:36:54;9.40;99.90
31759;DHT22;36334;51.366;0.020;2022-11-21T11:40:20;9.30;99.90
31759;DHT22;36334;51.366;0.020;2022-11-21T11:49:57;9.40;99.90
31759;DHT22;36334;51.366;0.020;2022-11-21T11:53:28;9.50;99.90
31759;DHT22;36334;51.366;0.020;2022-11-21T11:56:33;9.50;99.90
31759;DHT22;36334;51.366;0.020;2022-11-21T11:59:39;9.50;99.90
31759;DHT22;36334;51.366;0.020;2022-11-21T12:02:40;9.60;99.90
31759;DHT22;36334;51.366;0.020;2022-11-21T12:05:30;9.60;99.90
31759;DHT22;36334;51.366;0.020;2022-11-21T12:08:40;9.70;99.90
31759;DHT22;36334;51.366;0.020;2022-11-21T12:18:24;9.80;99.90
31759;DHT22;36334;51.366;0.020;2022-11-21T12:21:14;9.90;99.90
31759;DHT22;36334;51.366;0.020;2022-11-21T12:24:02;9.90;99.90
31759;DHT22;36334;51.366;0.020;2022-11-21T12:39:39;10.10;99.90
31759;DHT22;36334;51.366;0.020;2022-11-21T12:42:51;10.10;99.90
31759;DHT22;36334;51.366;0.020;2022-11-21T12:45:56;10.10;99.90
31759;DHT22;36334;51.366;0.020;2022-11-21T12:52:29;10.00;99.90
31759;DHT22;36334;51.366;0.020;2022-11-21T12:55:35;10.00;99.90
31759;DHT22;36334;51.366;0.020;2022-11-21T12:58:26;9.90;99.90
31759;DHT22;36334;51.366;0.020;2022-11-21T13:01:28;9.90;99.90
31759;DHT22;36334;51.366;0.020;2022-11-21T13:04:22;9.80;99.90
31759;DHT22;36334;51.366;0.020;2022-11-21T13:07:10;9.80;99.90
31759;DHT22;36334;51.366;0.020;2022-11-21T13:09:58;9.80;99.90
31759;DHT22;36334;51.366;0.020;2022-11-21T13:12:50;9.70;99.90
31759;DHT22;36334;51.366;0.020;2022-11-21T13:16:01;9.70;99.90
31759;DHT22;36334;51.366;0.020;2022-11-21T13:18:52;9.70;99.90
31759;DHT22;36334;51.366;0.020;2022-11-21T13:21:49;9.60;99.90
31759;DHT22;36334;51.366;0.020;2022-11-21T13:30:24;9.40;99.90
31759;DHT22;36334;51.366;0.020;2022-11-21T13:42:03;9.10;99.90
31759;DHT22;36334;51.366;0.020;2022-11-21T13:45:36;9.00;99.90
31759;DHT22;36334;51.366;0.020;2022-11-21T13:51:48;8.90;99.90
31759;DHT22;36334;51.366;0.020;2022-11-21T13:58:15;8.60;99.90
31759;DHT22;36334;51.366;0.020;2022-11-21T14:01:44;8.70;99.90
31759;DHT22;36334;51.366;0.020;2022-11-21T14:07:35;8.60;99.90
31759;DHT22;36334;51.366;0.020;2022-11-21T14:10:31;8.60;99.90
31759;DHT22;36334;51.366;0.020;2022-11-21T14:13:32;8.50;99.90
31759;DHT22;36334;51.366;0.020;2022-11-21T14:16:35;8.40;99.90
31759;DHT22;36334;51.366;0.020;2022-11-21T14:19:26;8.40;99.90
31759;DHT22;36334;51.366;0.020;2022-11-21T14:25:53;8.30;99.90
31759;DHT22;36334;51.366;0.020;2022-11-21T14:28:40;8.30;99.90
31759;DHT22;36334;51.366;0.020;2022-11-21T14:31:26;8.50;99.90
31759;DHT22;36334;51.366;0.020;2022-11-21T14:34:12;8.30;99.90
31759;DHT22;36334;51.366;0.020;2022-11-21T14:37:09;8.30;99.90
31759;DHT22;36334;51.366;0.020;2022-11-21T14:39:57;8.30;99.90
31759;DHT22;36334;51.366;0.020;2022-11-21T14:42:46;8.30;99.90
31759;DHT22;36334;51.366;0.020;2022-11-21T14:45:34;8.30;99.90
31759;DHT22;36334;51.366;0.020;2022-11-21T14:48:29;8.30;99.90
31759;DHT22;36334;51.366;0.020;2022-11-21T14:51:17;8.30;99.90
31759;DHT22;36334;51.366;0.020;2022-11-21T14:54:04;8.30;99.90
31759;DHT22;36334;51.366;0.020;2022-11-21T14:56:59;8.30;99.90
31759;DHT22;36334;51.366;0.020;2022-11-21T14:59:46;8.30;99.90
31759;DHT22;36334;51.366;0.020;2022-11-21T15:02:35;8.30;99.90
31759;DHT22;36334;51.366;0.020;2022-11-21T15:05:28;8.40;99.90
31759;DHT22;36334;51.366;0.020;2022-11-21T15:08:36;8.30;99.90
31759;DHT22;36334;51.366;0.020;2022-11-21T15:12:10;8.40;99.90
31759;DHT22;36334;51.366;0.020;2022-11-21T15:18:17;8.40;99.90
31759;DHT22;36334;51.366;0.020;2022-11-21T15:21:14;8.40;99.90
31759;DHT22;36334;51.366;0.020;2022-11-21T15:24:28;8.40;99.90
31759;DHT22;36334;51.366;0.020;2022-11-21T15:27:30;8.40;99.90
31759;DHT22;36334;51.366;0.020;2022-11-21T15:30:24;8.40;99.90
31759;DHT22;36334;51.366;0.020;2022-11-21T15:33:16;8.50;99.90
31759;DHT22;36334;51.366;0.020;2022-11-21T15:36:12;8.50;99.90
31759;DHT22;36334;51.366;0.020;2022-11-21T15:41:44;8.60;99.90
31759;DHT22;36334;51.366;0.020;2022-11-21T15:44:31;8.40;99.90
31759;DHT22;36334;51.366;0.020;2022-11-21T15:47:17;8.60;99.90
31759;DHT22;36334;51.366;0.020;2022-11-21T15:50:03;8.60;99.90
31759;DHT22;36334;51.366;0.020;2022-11-21T15:52:52;8.70;99.90
31759;DHT22;36334;51.366;0.020;2022-11-21T15:55:39;8.70;99.90
31759;DHT22;36334;51.366;0.020;2022-11-21T15:58:25;8.80;99.90
31759;DHT22;36334;51.366;0.020;2022-11-21T16:01:17;8.80;99.90
31759;DHT22;36334;51.366;0.020;2022-11-21T16:04:10;8.80;99.90
31759;DHT22;36334;51.366;0.020;2022-11-21T16:06:57;8.80;99.90
31759;DHT22;36334;51.366;0.020;2022-11-21T16:09:43;8.80;99.90
31759;DHT22;36334;51.366;0.020;2022-11-21T16:12:30;8.90;99.90
31759;DHT22;36334;51.366;0.020;2022-11-21T16:15:16;8.80;99.90
31759;DHT22;36334;51.366;0.020;2022-11-21T16:18:02;9.00;99.90
31759;DHT22;36334;51.366;0.020;2022-11-21T16:20:48;8.90;99.90
31759;DHT22;36334;51.366;0.020;2022-11-21T16:23:35;8.90;99.90
31759;DHT22;36334;51.366;0.020;2022-11-21T16:29:36;8.90;99.90
31759;DHT22;36334;51.366;0.020;2022-11-21T16:32:26;9.00;99.90
31759;DHT22;36334;51.366;0.020;2022-11-21T16:35:12;9.00;99.90
31759;DHT22;36334;51.366;0.020;2022-11-21T16:37:58;9.00;99.90
31759;DHT22;36334;51.366;0.020;2022-11-21T16:40:59;9.10;99.90
31759;DHT22;36334;51.366;0.020;2022-11-21T16:43:47;9.10;99.90
31759;DHT22;36334;51.366;0.020;2022-11-21T16:46:40;9.20;99.90
31759;DHT22;36334;51.366;0.020;2022-11-21T16:49:27;9.10;99.90
31759;DHT22;36334;51.366;0.020;2022-11-21T16:52:14;9.20;99.90
31759;DHT22;36334;51.366;0.020;2022-11-21T16:55:00;9.20;99.90
31759;DHT22;36334;51.366;0.020;2022-11-21T16:57:47;9.20;99.90
31759;DHT22;36334;51.366;0.020;2022-11-21T17:00:34;9.30;99.90
31759;DHT22;36334;51.366;0.020;2022-11-21T17:03:20;9.30;99.90
31759;DHT22;36334;51.366;0.020;2022-11-21T17:06:07;9.30;99.90
31759;DHT22;36334;51.366;0.020;2022-11-21T17:08:53;9.20;99.90
31759;DHT22;36334;51.366;0.020;2022-11-21T17:11:40;9.10;99.90
31759;DHT22;36334;51.366;0.020;2022-11-21T17:14:26;9.00;99.90
31759;DHT22;36334;51.366;0.020;2022-11-21T17:17:13;8.90;99.90
31759;DHT22;36334;51.366;0.020;2022-11-21T17:19:59;8.80;99.90
31759;DHT22;36334;51.366;0.020;2022-11-21T17:22:45;8.70;99.90
31759;DHT22;36334;51.366;0.020;2022-11-21T17:25:32;8.70;99.90
31759;DHT22;36334;51.366;0.020;2022-11-21T17:28:18;8.50;99.90
31759;DHT22;36334;51.366;0.020;2022-11-21T17:31:09;8.50;99.90
31759;DHT22;36334;51.366;0.020;2022-11-21T17:33:56;8.40;99.90
31759;DHT22;36334;51.366;0.020;2022-11-21T17:36:42;8.30;99.90
31759;DHT22;36334;51.366;0.020;2022-11-21T17:39:28;8.30;99.90
31759;DHT22;36334;51.366;0.020;2022-11-21T17:42:15;8.20;99.90
31759;DHT22;36334;51.366;0.020;2022-11-21T17:45:04;8.20;99.90
31759;DHT22;36334;51.366;0.020;2022-11-21T17:47:50;8.20;99.90
31759;DHT22;36334;51.366;0.020;2022-11-21T17:50:36;8.20;99.90
31759;DHT22;36334;51.366;0.020;2022-11-21T17:53:25;8.10;99.90
31759;DHT22;36334;51.366;0.020;2022-11-21T17:56:14;8.10;99.90
31759;DHT22;36334;51.366;0.020;2022-11-21T17:59:01;8.10;99.90
31759;DHT22;36334;51.366;0.020;2022-11-21T18:01:48;8.20;99.90
31759;DHT22;36334;51.366;0.020;2022-11-21T18:04:35;8.10;99.90
31759;DHT22;36334;51.366;0.020;2022-11-21T18:07:23;8.20;99.90
31759;DHT22;36334;51.366;0.020;2022-11-21T18:10:10;8.20;99.90
31759;DHT22;36334;51.366;0.020;2022-11-21T18:13:16;8.20;99.90
31759;DHT22;36334;51.366;0.020;2022-11-21T18:16:12;8.20;99.90
31759;DHT22;36334;51.366;0.020;2022-11-21T18:18:59;8.20;99.90
31759;DHT22;36334;51.366;0.020;2022-11-21T18:21:45;8.20;99.90
31759;DHT22;36334;51.366;0.020;2022-11-21T18:24:31;8.20;99.90
31759;DHT22;36334;51.366;0.020;2022-11-21T18:27:17;8.20;99.90
31759;DHT22;36334;51.366;0.020;2022-11-21T18:30:04;8.20;99.90
31759;DHT22;36334;51.366;0.020;2022-11-21T18:32:50;8.20;99.90
31759;DHT22;36334;51.366;0.020;2022-11-21T18:35:36;8.20;99.90
31759;DHT22;36334;51.366;0.020;2022-11-21T18:38:22;8.30;99.90
31759;DHT22;36334;51.366;0.020;2022-11-21T18:41:30;8.30;99.90
31759;DHT22;36334;51.366;0.020;2022-11-21T18:44:18;8.30;99.90
31759;DHT22;36334;51.366;0.020;2022-11-21T18:47:07;8.30;99.90
31759;DHT22;36334;51.366;0.020;2022-11-21T18:50:06;8.30;99.90
31759;DHT22;36334;51.366;0.020;2022-11-21T18:52:52;8.30;99.90
31759;DHT22;36334;51.366;0.020;2022-11-21T18:55:38;8.30;99.90
31759;DHT22;36334;51.366;0.020;2022-11-21T18:58:25;8.30;99.90
31759;DHT22;36334;51.366;0.020;2022-11-21T19:01:22;8.30;99.90
31759;DHT22;36334;51.366;0.020;2022-11-21T19:04:08;8.30;99.90
31759;DHT22;36334;51.366;0.020;2022-11-21T19:06:55;8.30;99.90
31759;DHT22;36334;51.366;0.020;2022-11-21T19:09:41;8.30;99.90
31759;DHT22;36334;51.366;0.020;2022-11-21T19:12:27;8.20;99.90
31759;DHT22;36334;51.366;0.020;2022-11-21T19:15:13;8.20;99.90
31759;DHT22;36334;51.366;0.020;2022-11-21T19:17:59;8.10;99.90
31759;DHT22;36334;51.366;0.020;2022-11-21T19:20:45;8.00;99.90
31759;DHT22;36334;51.366;0.020;2022-11-21T19:23:31;8.00;99.90
31759;DHT22;36334;51.366;0.020;2022-11-21T19:26:19;7.90;99.90
31759;DHT22;36334;51.366;0.020;2022-11-21T19:29:06;7.80;99.90
31759;DHT22;36334;51.366;0.020;2022-11-21T19:31:52;7.70;99.90
31759;DHT22;36334;51.366;0.020;2022-11-21T19:34:38;7.70;99.90
31759;DHT22;36334;51.366;0.020;2022-11-21T19:37:27;7.60;99.90
31759;DHT22;36334;51.366;0.020;2022-11-21T19:40:13;7.60;99.90
31759;DHT22;36334;51.366;0.020;2022-11-21T19:42:59;7.50;99.90
31759;DHT22;36334;51.366;0.020;2022-11-21T19:45:45;7.50;99.90
31759;DHT22;36334;51.366;0.020;2022-11-21T19:48:33;7.50;99.90
31759;DHT22;36334;51.366;0.020;2022-11-21T19:51:21;7.40;99.90
31759;DHT22;36334;51.366;0.020;2022-11-21T19:54:09;7.30;99.90
31759;DHT22;36334;51.366;0.020;2022-11-21T19:56:56;7.30;99.90
31759;DHT22;36334;51.366;0.020;2022-11-21T19:59:42;7.30;99.90
31759;DHT22;36334;51.366;0.020;2022-11-21T20:02:32;7.30;99.90
31759;DHT22;36334;51.366;0.020;2022-11-21T20:05:18;7.30;99.90
31759;DHT22;36334;51.366;0.020;2022-11-21T20:08:04;7.20;99.90
31759;DHT22;36334;51.366;0.020;2022-11-21T20:11:10;7.20;99.90
31759;DHT22;36334;51.366;0.020;2022-11-21T20:13:57;7.20;99.90
31759;DHT22;36334;51.366;0.020;2022-11-21T20:16:51;7.10;99.90
31759;DHT22;36334;51.366;0.020;2022-11-21T20:19:40;7.10;99.90
31759;DHT22;36334;51.366;0.020;2022-11-21T20:22:34;7.10;99.90
31759;DHT22;36334;51.366;0.020;2022-11-21T20:25:20;7.10;99.90
31759;DHT22;36334;51.366;0.020;2022-11-21T20:28:06;7.10;99.90
31759;DHT22;36334;51.366;0.020;2022-11-21T20:31:26;7.10;99.90
31759;DHT22;36334;51.366;0.020;2022-11-21T20:34:13;7.10;99.90
31759;DHT22;36334;51.366;0.020;2022-11-21T20:36:59;7.00;99.90